createdAt,value
2022-11-23T00:00:34.354Z,8.52
2022-11-23T00:01:37.842Z,8.50
2022-11-23T00:02:39.612Z,8.50
2022-11-23T00:03:41.524Z,9.05
2022-11-23T00:04:43.185Z,8.15
2022-11-23T00:05:44.884Z,9.20
2022-11-23T00:06:46.550Z,8.80
2022-11-23T00:07:48.545Z,8.00
2022-11-23T00:08:50.850Z,8.02
2022-11-23T00:09:52.555Z,8.30
2022-11-23T00:10:58.813Z,8.07
2022-11-23T00:12:00.506Z,8.50
2022-11-23T00:13:02.414Z,8.38
2022-11-23T00:14:04.846Z,8.43
2022-11-23T00:15:07.553Z,8.00
2022-11-23T00:16:12.788Z,7.50
2022-11-23T00:17:14.481Z,7.13
2022-11-23T00:18:16.267Z,7.72
2022-11-23T00:19:17.922Z,7.60
2022-11-23T00:20:19.733Z,6.72
2022-11-23T00:21:22.645Z,7.72
2022-11-23T00:22:24.377Z,6.90
2022-11-23T00:23:26.193Z,8.05
2022-11-23T00:24:27.891Z,6.80
2022-11-23T00:25:29.748Z,7.20
2022-11-23T00:26:31.434Z,7.07
2022-11-23T00:27:33.091Z,6.40
2022-11-23T00:28:40.049Z,6.18
2022-11-23T00:29:41.687Z,6.82
2022-11-23T00:30:48.902Z,6.07
2022-11-23T00:31:50.531Z,6.60
2022-11-23T00:32:52.196Z,6.70
2022-11-23T00:33:55.714Z,7.32
2022-11-23T00:34:57.393Z,7.88
2022-11-23T00:36:08.091Z,7.95
2022-11-23T00:37:09.917Z,8.70
2022-11-23T00:38:11.700Z,8.35
2022-11-23T00:39:13.360Z,7.50
2022-11-23T00:40:15.527Z,7.95
2022-11-23T00:41:20.184Z,8.18
2022-11-23T00:42:21.836Z,7.55
2022-11-23T00:43:23.534Z,7.80
2022-11-23T00:44:25.273Z,8.13
2022-11-23T00:45:26.924Z,8.50
2022-11-23T00:46:28.667Z,8.82
2022-11-23T00:47:30.315Z,8.32
2022-11-23T00:48:32.456Z,8.60
2022-11-23T00:49:34.284Z,8.57
2022-11-23T00:50:36.029Z,8.55
2022-11-23T00:51:38.162Z,8.73
2022-11-23T00:52:39.816Z,8.57
2022-11-23T00:53:42.128Z,8.77
2022-11-23T00:54:43.784Z,8.63
2022-11-23T00:55:53.301Z,8.82
2022-11-23T00:56:54.968Z,8.50
2022-11-23T00:57:58.315Z,9.13
2022-11-23T00:59:01.770Z,8.57
2022-11-23T01:00:05.083Z,8.15
2022-11-23T01:01:14.942Z,8.30
2022-11-23T01:02:16.674Z,7.38
2022-11-23T01:03:18.353Z,8.27
2022-11-23T01:04:20.045Z,8.73
2022-11-23T01:05:21.800Z,8.70
2022-11-23T01:06:26.840Z,8.70
2022-11-23T01:07:30.655Z,7.95
2022-11-23T01:08:32.552Z,8.50
2022-11-23T01:09:34.274Z,9.10
2022-11-23T01:10:36.022Z,8.57
2022-11-23T01:11:37.796Z,9.25
2022-11-23T01:12:39.452Z,8.50
2022-11-23T01:13:41.727Z,8.82
2022-11-23T01:14:43.428Z,9.93
2022-11-23T01:15:51.348Z,9.50
2022-11-23T01:16:53.037Z,9.75
2022-11-23T01:17:54.690Z,10.52
2022-11-23T01:19:05.320Z,9.57
2022-11-23T01:20:07.935Z,10.38
2022-11-23T01:21:09.734Z,10.02
2022-11-23T01:22:11.389Z,9.70
2022-11-23T01:23:13.036Z,9.32
2022-11-23T01:24:18.379Z,8.93
2022-11-23T01:25:20.149Z,7.13
2022-11-23T01:26:22.621Z,7.40
2022-11-23T01:27:24.312Z,8.23
2022-11-23T01:28:25.988Z,7.97
2022-11-23T01:29:27.643Z,7.00
2022-11-23T01:30:29.684Z,6.80
2022-11-23T01:31:31.434Z,6.35
2022-11-23T01:32:33.075Z,6.25
2022-11-23T01:33:35.684Z,6.20
2022-11-23T01:34:37.459Z,6.05
2022-11-23T01:35:39.329Z,6.00
2022-11-23T01:36:41.312Z,6.00
2022-11-23T01:37:42.962Z,6.25
2022-11-23T01:38:45.883Z,6.07
2022-11-23T01:39:48.544Z,6.00
2022-11-23T01:40:50.198Z,6.35
2022-11-23T01:41:51.859Z,5.72
2022-11-23T01:42:56.938Z,5.50
2022-11-23T01:43:59.325Z,5.88
2022-11-23T01:45:39.578Z,5.15
2022-11-23T01:46:41.276Z,5.47
2022-11-23T01:47:42.992Z,5.55
2022-11-23T01:49:04.274Z,6.13
2022-11-23T01:50:06.377Z,5.53
2022-11-23T01:51:39.628Z,6.15
2022-11-23T01:52:41.348Z,7.60
2022-11-23T01:53:45.291Z,8.35
2022-11-23T01:54:50.161Z,9.38
2022-11-23T01:55:52.646Z,9.88
2022-11-23T01:57:00.525Z,10.40
2022-11-23T01:58:03.316Z,9.88
2022-11-23T01:59:11.068Z,9.70
2022-11-23T02:00:13.674Z,10.25
2022-11-23T02:01:15.465Z,9.23
2022-11-23T02:02:17.968Z,9.35
2022-11-23T02:03:20.094Z,9.50
2022-11-23T02:04:25.961Z,9.80
2022-11-23T02:05:48.193Z,10.55
2022-11-23T02:06:50.767Z,9.52
2022-11-23T02:07:53.331Z,10.20
2022-11-23T02:08:55.775Z,10.43
2022-11-23T02:09:57.782Z,8.43
2022-11-23T02:11:00.317Z,9.40
2022-11-23T02:12:02.056Z,9.60
2022-11-23T02:13:06.567Z,8.93
2022-11-23T02:14:09.018Z,9.23
2022-11-23T02:15:10.975Z,8.63
2022-11-23T02:16:13.833Z,8.82
2022-11-23T02:17:15.679Z,9.18
2022-11-23T02:18:22.745Z,8.32
2022-11-23T02:19:37.489Z,8.10
2022-11-23T02:20:39.397Z,8.10
2022-11-23T02:21:42.404Z,8.00
2022-11-23T02:23:19.472Z,8.68
2022-11-23T02:24:28.963Z,8.45
2022-11-23T02:25:45.598Z,7.78
2022-11-23T02:26:47.409Z,7.78
2022-11-23T02:27:49.843Z,6.82
2022-11-23T02:29:00.981Z,7.53
2022-11-23T02:30:03.614Z,8.43
2022-11-23T02:31:05.302Z,8.05
2022-11-23T02:32:06.961Z,7.95
2022-11-23T02:33:08.638Z,8.00
2022-11-23T02:34:10.374Z,11.52
2022-11-23T02:35:12.791Z,33.47
2022-11-23T02:36:26.639Z,11.10
2022-11-23T02:37:28.374Z,8.48
2022-11-23T02:38:33.544Z,8.43
2022-11-23T02:39:38.411Z,7.70
2022-11-23T02:40:40.094Z,7.70
2022-11-23T02:41:44.901Z,8.57
2022-11-23T02:44:16.787Z,8.43
2022-11-23T02:45:43.610Z,8.10
2022-11-23T02:46:45.575Z,7.65
2022-11-23T02:47:49.126Z,8.10
2022-11-23T02:48:50.673Z,8.00
2022-11-23T02:49:52.277Z,7.65
2022-11-23T02:50:53.980Z,7.65
2022-11-23T02:51:55.714Z,7.38
2022-11-23T02:52:57.458Z,8.50
2022-11-23T02:53:59.214Z,7.82
2022-11-23T02:55:01.128Z,7.35
2022-11-23T02:56:02.925Z,7.63
2022-11-23T02:57:06.017Z,7.78
2022-11-23T02:58:08.114Z,7.60
2022-11-23T02:59:09.791Z,7.53
2022-11-23T03:00:12.174Z,7.85
2022-11-23T03:01:13.956Z,7.80
2022-11-23T03:02:15.696Z,8.15
2022-11-23T03:03:17.376Z,8.20
2022-11-23T03:04:23.076Z,9.38
2022-11-23T03:05:29.380Z,8.48
2022-11-23T03:06:31.063Z,8.23
2022-11-23T03:07:32.773Z,7.88
2022-11-23T03:08:34.532Z,7.65
2022-11-23T03:09:36.214Z,7.95
2022-11-23T03:10:37.870Z,9.05
2022-11-23T03:11:39.560Z,8.75
2022-11-23T03:12:41.287Z,8.23
2022-11-23T03:13:43.173Z,7.90
2022-11-23T03:14:44.880Z,8.35
2022-11-23T03:15:46.607Z,8.45
2022-11-23T03:16:48.339Z,8.02
2022-11-23T03:17:50.287Z,7.88
2022-11-23T03:18:52.143Z,7.15
2022-11-23T03:19:54.121Z,7.50
2022-11-23T03:20:55.814Z,7.82
2022-11-23T03:21:57.454Z,8.85
2022-11-23T03:22:59.385Z,8.75
2022-11-23T03:24:01.049Z,9.32
2022-11-23T03:25:02.757Z,9.32
2022-11-23T03:26:09.806Z,8.32
2022-11-23T03:27:14.282Z,8.60
2022-11-23T03:28:15.972Z,7.88
2022-11-23T03:29:17.670Z,8.05
2022-11-23T03:30:19.376Z,7.25
2022-11-23T03:31:21.468Z,7.18
2022-11-23T03:32:23.114Z,6.40
2022-11-23T03:33:24.757Z,6.97
2022-11-23T03:34:26.434Z,7.32
2022-11-23T03:35:28.088Z,6.63
2022-11-23T03:36:29.751Z,7.20
2022-11-23T03:37:31.648Z,7.10
2022-11-23T03:38:33.338Z,7.30
2022-11-23T03:39:35.075Z,7.50
2022-11-23T03:40:37.120Z,7.10
2022-11-23T03:41:38.900Z,6.35
2022-11-23T03:42:41.555Z,7.05
2022-11-23T03:43:43.242Z,7.30
2022-11-23T03:44:44.904Z,6.82
2022-11-23T03:45:46.558Z,7.07
2022-11-23T03:46:48.264Z,6.53
2022-11-23T03:47:50.026Z,7.28
2022-11-23T03:48:51.713Z,7.18
2022-11-23T03:49:53.424Z,7.32
2022-11-23T03:50:55.079Z,6.75
2022-11-23T03:51:56.772Z,6.90
2022-11-23T03:52:59.822Z,6.78
2022-11-23T03:54:01.526Z,6.85
2022-11-23T03:55:03.347Z,6.90
2022-11-23T03:56:05.319Z,7.22
2022-11-23T03:57:06.973Z,6.88
2022-11-23T03:58:08.658Z,6.78
2022-11-23T03:59:10.348Z,6.97
2022-11-23T04:00:12.383Z,6.93
2022-11-23T04:01:14.287Z,6.82
2022-11-23T04:02:16.061Z,6.95
2022-11-23T04:03:17.764Z,6.32
2022-11-23T04:04:19.423Z,7.47
2022-11-23T04:05:21.204Z,7.60
2022-11-23T04:06:22.952Z,7.38
2022-11-23T04:07:24.621Z,7.68
2022-11-23T04:08:26.872Z,6.95
2022-11-23T04:09:28.560Z,7.55
2022-11-23T04:10:30.259Z,7.88
2022-11-23T04:11:32.173Z,7.25
2022-11-23T04:12:33.845Z,7.10
2022-11-23T04:13:35.636Z,7.68
2022-11-23T04:14:37.341Z,7.60
2022-11-23T04:15:39.085Z,7.35
2022-11-23T04:16:40.775Z,7.38
2022-11-23T04:17:42.411Z,7.18
2022-11-23T04:18:44.057Z,7.30
2022-11-23T04:19:45.712Z,7.55
2022-11-23T04:20:47.464Z,7.20
2022-11-23T04:21:49.111Z,7.05
2022-11-23T04:22:50.773Z,7.10
2022-11-23T04:23:52.409Z,6.95
2022-11-23T04:24:54.047Z,6.38
2022-11-23T04:25:55.731Z,6.72
2022-11-23T04:26:57.434Z,6.88
2022-11-23T04:27:59.125Z,6.63
2022-11-23T04:29:00.782Z,7.65
2022-11-23T04:30:02.537Z,7.63
2022-11-23T04:31:04.355Z,7.47
2022-11-23T04:32:06.078Z,7.00
2022-11-23T04:33:07.792Z,7.15
2022-11-23T04:34:09.656Z,6.78
2022-11-23T04:35:11.883Z,6.60
2022-11-23T04:36:13.638Z,6.80
2022-11-23T04:37:15.296Z,8.13
2022-11-23T04:38:16.967Z,6.47
2022-11-23T04:39:18.653Z,6.47
2022-11-23T04:40:20.328Z,6.32
2022-11-23T04:41:23.475Z,6.10
2022-11-23T04:42:25.132Z,5.95
2022-11-23T04:43:26.794Z,6.18
2022-11-23T04:44:28.459Z,6.18
2022-11-23T04:45:30.166Z,6.10
2022-11-23T04:46:32.026Z,6.30
2022-11-23T04:47:33.738Z,6.72
2022-11-23T04:48:35.395Z,6.00
2022-11-23T04:49:37.052Z,6.40
2022-11-23T04:50:40.486Z,5.90
2022-11-23T04:51:42.906Z,6.90
2022-11-23T04:52:44.553Z,6.85
2022-11-23T04:53:46.211Z,6.47
2022-11-23T04:54:47.924Z,7.00
2022-11-23T04:55:49.730Z,6.82
2022-11-23T04:56:51.399Z,7.35
2022-11-23T04:57:53.040Z,7.07
2022-11-23T04:58:54.703Z,7.45
2022-11-23T04:59:56.446Z,7.70
2022-11-23T05:00:59.606Z,6.70
2022-11-23T05:02:01.725Z,7.18
2022-11-23T05:03:03.415Z,7.05
2022-11-23T05:04:05.364Z,6.07
2022-11-23T05:05:07.351Z,6.25
2022-11-23T05:06:10.198Z,6.97
2022-11-23T05:07:11.949Z,6.07
2022-11-23T05:08:13.661Z,7.38
2022-11-23T05:09:15.602Z,7.97
2022-11-23T05:10:17.317Z,6.32
2022-11-23T05:11:20.016Z,6.85
2022-11-23T05:12:21.706Z,6.18
2022-11-23T05:13:23.864Z,5.82
2022-11-23T05:14:25.496Z,6.20
2022-11-23T05:15:27.305Z,6.05
2022-11-23T05:16:28.975Z,6.32
2022-11-23T05:17:30.755Z,6.53
2022-11-23T05:18:32.427Z,5.75
2022-11-23T05:19:34.462Z,6.63
2022-11-23T05:20:36.430Z,6.22
2022-11-23T05:21:38.063Z,6.40
2022-11-23T05:22:39.881Z,6.43
2022-11-23T05:23:41.513Z,6.07
2022-11-23T05:24:43.155Z,6.55
2022-11-23T05:25:44.809Z,5.85
2022-11-23T05:26:46.440Z,6.22
2022-11-23T05:27:48.103Z,6.80
2022-11-23T05:28:49.741Z,6.60
2022-11-23T05:29:51.507Z,7.20
2022-11-23T05:30:53.962Z,6.75
2022-11-23T05:31:55.609Z,6.78
2022-11-23T05:33:03.933Z,6.57
2022-11-23T05:34:05.652Z,6.43
2022-11-23T05:35:08.029Z,6.60
2022-11-23T05:36:13.912Z,7.03
2022-11-23T05:37:15.837Z,7.25
2022-11-23T05:38:17.768Z,6.55
2022-11-23T05:39:19.544Z,6.65
2022-11-23T05:40:21.275Z,6.88
2022-11-23T05:41:22.922Z,6.75
2022-11-23T05:42:24.620Z,6.65
2022-11-23T05:43:26.318Z,7.25
2022-11-23T05:44:27.965Z,7.70
2022-11-23T05:45:29.616Z,8.50
2022-11-23T05:46:31.282Z,8.27
2022-11-23T05:47:32.978Z,9.90
2022-11-23T05:48:34.708Z,9.13
2022-11-23T05:49:36.377Z,8.48
2022-11-23T05:50:38.069Z,8.20
2022-11-23T05:51:40.313Z,7.60
2022-11-23T05:52:41.958Z,7.97
2022-11-23T05:53:43.640Z,7.85
2022-11-23T05:54:45.347Z,7.95
2022-11-23T05:55:47.113Z,8.52
2022-11-23T05:56:48.781Z,8.77
2022-11-23T05:57:50.516Z,7.90
2022-11-23T05:58:52.151Z,8.55
2022-11-23T05:59:53.884Z,8.38
2022-11-23T06:00:59.998Z,8.35
2022-11-23T06:02:01.775Z,8.43
2022-11-23T06:03:03.899Z,8.90
2022-11-23T06:04:06.897Z,8.18
2022-11-23T06:05:09.553Z,8.93
2022-11-23T06:06:11.496Z,8.40
2022-11-23T06:07:13.239Z,8.38
2022-11-23T06:08:14.924Z,7.75
2022-11-23T06:09:16.659Z,7.90
2022-11-23T06:10:18.385Z,7.68
2022-11-23T06:11:20.036Z,7.72
2022-11-23T06:12:21.700Z,7.07
2022-11-23T06:13:23.341Z,7.90
2022-11-23T06:14:24.980Z,9.02
2022-11-23T06:15:26.673Z,9.25
2022-11-23T06:16:28.523Z,8.45
2022-11-23T06:17:30.303Z,9.82
2022-11-23T06:18:32.015Z,11.63
2022-11-23T06:19:34.061Z,12.30
2022-11-23T06:20:36.525Z,11.25
2022-11-23T06:21:38.186Z,11.05
2022-11-23T06:22:39.975Z,11.82
2022-11-23T06:23:41.636Z,9.88
2022-11-23T06:24:43.492Z,9.00
2022-11-23T06:25:45.159Z,9.10
2022-11-23T06:26:46.847Z,9.00
2022-11-23T06:27:59.194Z,9.02
2022-11-23T06:29:00.834Z,8.98
2022-11-23T06:30:02.503Z,8.27
2022-11-23T06:31:06.733Z,7.63
2022-11-23T06:32:08.909Z,7.50
2022-11-23T06:33:10.663Z,8.43
2022-11-23T06:34:12.729Z,8.32
2022-11-23T06:35:14.424Z,8.10
2022-11-23T06:36:16.143Z,9.00
2022-11-23T06:37:17.835Z,9.02
2022-11-23T06:38:19.605Z,9.40
2022-11-23T06:39:21.279Z,9.63
2022-11-23T06:40:23.008Z,9.70
2022-11-23T06:41:28.188Z,9.30
2022-11-23T06:42:41.051Z,9.82
2022-11-23T06:43:42.810Z,9.85
2022-11-23T06:44:44.475Z,9.98
2022-11-23T06:45:46.113Z,9.23
2022-11-23T06:46:47.771Z,10.68
2022-11-23T06:47:49.421Z,10.57
2022-11-23T06:48:51.126Z,10.50
2022-11-23T06:49:52.776Z,10.18
2022-11-23T06:50:54.829Z,10.95
2022-11-23T06:51:56.481Z,10.63
2022-11-23T06:52:58.822Z,11.02
2022-11-23T06:54:00.531Z,10.38
2022-11-23T06:55:02.240Z,11.00
2022-11-23T06:56:04.548Z,10.82
2022-11-23T06:57:09.075Z,10.30
2022-11-23T06:58:11.584Z,10.48
2022-11-23T06:59:13.647Z,10.02
2022-11-23T07:00:15.830Z,10.18
2022-11-23T07:01:17.555Z,10.65
2022-11-23T07:02:19.276Z,10.85
2022-11-23T07:03:23.574Z,11.30
2022-11-23T07:04:25.347Z,10.40
2022-11-23T07:05:27.945Z,11.07
2022-11-23T07:06:29.625Z,10.85
2022-11-23T07:07:31.711Z,11.23
2022-11-23T07:08:34.330Z,10.52
2022-11-23T07:09:36.095Z,11.35
2022-11-23T07:10:38.199Z,11.27
2022-11-23T07:11:39.962Z,12.10
2022-11-23T07:12:41.754Z,11.07
2022-11-23T07:13:43.396Z,12.15
2022-11-23T07:14:45.080Z,11.05
2022-11-23T07:15:46.763Z,11.32
2022-11-23T07:16:48.411Z,10.50
2022-11-23T07:17:50.076Z,11.80
2022-11-23T07:18:51.739Z,12.15
2022-11-23T07:19:53.423Z,11.60
2022-11-23T07:20:58.516Z,11.90
2022-11-23T07:22:00.187Z,11.50
2022-11-23T07:23:11.675Z,11.82
2022-11-23T07:24:13.325Z,11.55
2022-11-23T07:25:18.457Z,11.60
2022-11-23T07:26:20.169Z,12.40
2022-11-23T07:27:21.977Z,12.02
2022-11-23T07:28:23.631Z,12.23
2022-11-23T07:29:25.300Z,11.27
2022-11-23T07:30:29.639Z,11.60
2022-11-23T07:31:31.709Z,12.43
2022-11-23T07:32:33.340Z,12.02
2022-11-23T07:33:35.008Z,11.68
2022-11-23T07:34:36.724Z,10.90
2022-11-23T07:35:40.445Z,10.95
2022-11-23T07:36:42.240Z,10.95
2022-11-23T07:37:44.247Z,9.48
2022-11-23T07:38:45.962Z,10.20
2022-11-23T07:40:03.335Z,10.45
2022-11-23T07:41:05.296Z,10.50
2022-11-23T07:42:31.010Z,10.15
2022-11-23T07:43:28.657Z,10.30
2022-11-23T07:44:30.348Z,9.90
2022-11-23T07:45:32.984Z,11.38
2022-11-23T07:46:34.672Z,10.65
2022-11-23T07:47:36.902Z,10.50
2022-11-23T07:48:38.585Z,10.02
2022-11-23T07:49:40.258Z,10.25
2022-11-23T07:50:41.921Z,10.05
2022-11-23T07:51:43.602Z,9.77
2022-11-23T07:52:45.235Z,10.48
2022-11-23T07:53:47.426Z,9.95
2022-11-23T07:54:49.137Z,10.10
2022-11-23T07:55:55.754Z,9.88
2022-11-23T07:56:57.420Z,9.98
2022-11-23T07:57:59.744Z,9.52
2022-11-23T07:59:01.404Z,8.73
2022-11-23T08:00:04.355Z,8.75
2022-11-23T08:01:06.108Z,9.55
2022-11-23T08:02:12.372Z,9.73
2022-11-23T08:03:30.680Z,9.68
2022-11-23T08:04:32.719Z,10.05
2022-11-23T08:05:35.801Z,10.07
2022-11-23T08:06:37.453Z,9.38
2022-11-23T08:07:39.212Z,9.38
2022-11-23T08:08:41.294Z,9.68
2022-11-23T08:09:43.039Z,9.43
2022-11-23T08:10:48.562Z,9.63
2022-11-23T08:11:54.448Z,9.40
2022-11-23T08:13:04.550Z,9.80
2022-11-23T08:14:06.245Z,10.18
2022-11-23T08:15:08.276Z,10.18
2022-11-23T08:16:09.961Z,9.95
2022-11-23T08:17:11.677Z,9.07
2022-11-23T08:18:13.354Z,8.98
2022-11-23T08:19:15.013Z,10.90
2022-11-23T08:20:16.690Z,9.25
2022-11-23T08:21:18.375Z,10.10
2022-11-23T08:22:20.035Z,9.65
2022-11-23T08:23:22.070Z,10.40
2022-11-23T08:24:23.760Z,10.55
2022-11-23T08:25:27.351Z,11.10
2022-11-23T08:26:29.513Z,10.68
2022-11-23T08:27:31.174Z,10.13
2022-11-23T08:28:33.016Z,9.98
2022-11-23T08:29:34.663Z,9.80
2022-11-23T08:30:36.686Z,10.30
2022-11-23T08:31:38.357Z,10.82
2022-11-23T08:32:40.008Z,9.60
2022-11-23T08:33:41.850Z,10.13
2022-11-23T08:34:44.538Z,10.93
2022-11-23T08:35:46.195Z,10.55
2022-11-23T08:36:48.384Z,10.93
2022-11-23T08:37:50.241Z,10.27
2022-11-23T08:38:52.993Z,9.80
2022-11-23T08:39:54.676Z,10.07
2022-11-23T08:41:00.713Z,9.93
2022-11-23T08:42:02.462Z,9.23
2022-11-23T08:43:05.406Z,9.65
2022-11-23T08:44:09.916Z,10.80
2022-11-23T08:45:11.683Z,10.13
2022-11-23T08:46:13.489Z,9.15
2022-11-23T08:47:15.174Z,10.10
2022-11-23T08:48:17.135Z,10.07
2022-11-23T08:49:18.878Z,9.60
2022-11-23T08:50:21.486Z,10.07
2022-11-23T08:51:23.359Z,9.75
2022-11-23T08:52:25.665Z,10.57
2022-11-23T08:53:27.508Z,10.32
2022-11-23T08:54:29.182Z,9.50
2022-11-23T08:55:30.889Z,10.02
2022-11-23T08:56:32.582Z,9.57
2022-11-23T08:57:34.381Z,9.73
2022-11-23T08:58:37.034Z,10.00
2022-11-23T08:59:38.679Z,9.32
2022-11-23T09:00:40.327Z,10.20
2022-11-23T09:01:42.045Z,8.65
2022-11-23T09:02:43.759Z,9.10
2022-11-23T09:03:45.752Z,8.98
2022-11-23T09:04:48.187Z,9.57
2022-11-23T09:05:51.245Z,9.98
2022-11-23T09:06:52.954Z,9.43
2022-11-23T09:07:55.631Z,9.07
2022-11-23T09:08:57.407Z,10.07
2022-11-23T09:09:59.035Z,9.60
2022-11-23T09:11:06.727Z,9.40
2022-11-23T09:12:08.704Z,9.75
2022-11-23T09:13:10.391Z,10.18
2022-11-23T09:14:12.228Z,9.43
2022-11-23T09:15:14.181Z,10.05
2022-11-23T09:16:15.829Z,9.48
2022-11-23T09:17:17.513Z,9.30
2022-11-23T09:18:19.188Z,9.98
2022-11-23T09:19:21.639Z,10.18
2022-11-23T09:20:23.547Z,10.18
2022-11-23T09:21:29.549Z,10.38
2022-11-23T09:22:31.548Z,9.98
2022-11-23T09:23:34.369Z,10.00
2022-11-23T09:24:36.430Z,9.40
2022-11-23T09:25:38.358Z,8.95
2022-11-23T09:26:40.638Z,9.20
2022-11-23T09:27:42.357Z,9.85
2022-11-23T09:28:45.068Z,8.88
2022-11-23T09:29:46.859Z,8.55
2022-11-23T09:30:48.529Z,9.23
2022-11-23T09:31:50.209Z,8.48
2022-11-23T09:32:51.962Z,8.52
2022-11-23T09:33:54.056Z,8.82
2022-11-23T09:34:55.698Z,8.50
2022-11-23T09:36:02.452Z,8.98
2022-11-23T09:37:04.192Z,8.48
2022-11-23T09:38:05.865Z,8.88
2022-11-23T09:39:08.513Z,8.18
2022-11-23T09:40:17.374Z,8.63
2022-11-23T09:41:19.004Z,8.40
2022-11-23T09:42:43.548Z,7.95
2022-11-23T09:44:10.130Z,8.23
2022-11-23T09:45:22.265Z,8.45
2022-11-23T09:46:58.327Z,8.35
2022-11-23T09:48:43.653Z,8.73
2022-11-23T09:50:00.336Z,8.52
2022-11-23T09:51:19.988Z,8.05
2022-11-23T09:52:24.126Z,8.57
2022-11-23T09:53:36.336Z,8.25
2022-11-23T09:54:40.245Z,7.90
2022-11-23T09:55:46.711Z,8.23
2022-11-23T09:56:51.448Z,8.25
2022-11-23T09:57:59.376Z,8.38
2022-11-23T09:59:14.092Z,8.52
2022-11-23T10:00:23.629Z,8.35
2022-11-23T10:01:27.764Z,7.68
2022-11-23T10:02:31.021Z,8.18
2022-11-23T10:03:36.513Z,7.60
2022-11-23T10:04:38.257Z,8.18
2022-11-23T10:05:40.108Z,8.30
2022-11-23T10:06:44.225Z,8.05
2022-11-23T10:08:10.775Z,8.60
2022-11-23T10:09:39.222Z,7.72
2022-11-23T10:10:49.493Z,7.70
2022-11-23T10:12:05.402Z,8.45
2022-11-23T10:13:49.867Z,7.55
2022-11-23T10:15:14.192Z,8.32
2022-11-23T10:16:27.705Z,7.53
2022-11-23T10:18:06.773Z,8.02
2022-11-23T10:19:31.810Z,7.68
2022-11-23T10:20:39.432Z,8.25
2022-11-23T10:22:27.001Z,8.02
2022-11-23T10:23:31.764Z,8.75
2022-11-23T10:24:38.342Z,8.30
2022-11-23T10:25:47.863Z,7.90
2022-11-23T10:26:50.716Z,8.25
2022-11-23T10:27:59.425Z,7.80
2022-11-23T10:29:30.161Z,7.75
2022-11-23T10:30:32.279Z,8.77
2022-11-23T10:31:33.917Z,8.57
2022-11-23T10:32:46.684Z,8.63
2022-11-23T10:33:54.351Z,8.30
2022-11-23T10:35:22.396Z,8.40
2022-11-23T10:36:24.216Z,8.80
2022-11-23T10:37:26.491Z,8.63
2022-11-23T10:38:29.164Z,8.27
2022-11-23T10:39:32.455Z,8.60
2022-11-23T10:40:36.042Z,8.25
2022-11-23T10:41:37.702Z,8.32
2022-11-23T10:42:46.541Z,8.88
2022-11-23T10:44:23.672Z,8.88
2022-11-23T10:45:29.474Z,8.20
2022-11-23T10:46:39.373Z,8.52
2022-11-23T10:47:49.074Z,8.20
2022-11-23T10:48:52.402Z,8.07
2022-11-23T10:49:58.741Z,9.20
2022-11-23T10:51:21.847Z,9.93
2022-11-23T10:52:30.196Z,8.07
2022-11-23T10:53:33.943Z,8.50
2022-11-23T10:54:40.458Z,9.85
2022-11-23T10:55:55.213Z,8.45
2022-11-23T10:56:58.581Z,9.07
2022-11-23T10:58:01.049Z,8.98
2022-11-23T10:59:02.720Z,8.40
2022-11-23T11:00:18.487Z,8.98
2022-11-23T11:01:29.675Z,9.30
2022-11-23T11:02:40.835Z,8.75
2022-11-23T11:04:45.207Z,9.18
2022-11-23T11:06:08.468Z,9.68
2022-11-23T11:07:31.775Z,9.52
2022-11-23T11:08:35.902Z,8.40
2022-11-23T11:09:38.731Z,8.80
2022-11-23T11:10:52.253Z,9.27
2022-11-23T11:11:55.295Z,9.20
2022-11-23T11:12:57.004Z,9.38
2022-11-23T11:14:18.242Z,9.25
2022-11-23T11:15:19.974Z,8.85
2022-11-23T11:16:36.201Z,10.07
2022-11-23T11:17:39.612Z,9.27
2022-11-23T11:18:41.329Z,9.13
2022-11-23T11:19:43.037Z,9.43
2022-11-23T11:20:45.678Z,9.50
2022-11-23T11:21:47.795Z,9.80
2022-11-23T11:22:49.691Z,9.50
2022-11-23T11:23:59.431Z,9.98
2022-11-23T11:25:04.411Z,9.82
2022-11-23T11:26:10.614Z,10.32
2022-11-23T11:27:20.330Z,9.15
2022-11-23T11:28:24.819Z,9.57
2022-11-23T11:29:39.245Z,9.25
2022-11-23T11:30:48.712Z,8.73
2022-11-23T11:31:53.252Z,9.63
2022-11-23T11:33:36.262Z,10.02
2022-11-23T11:34:47.227Z,9.55
2022-11-23T11:35:53.803Z,10.15
2022-11-23T11:37:09.587Z,8.63
2022-11-23T11:38:31.636Z,9.32
2022-11-23T11:39:44.972Z,9.38
2022-11-23T11:40:52.314Z,9.50
2022-11-23T11:41:58.231Z,9.60
2022-11-23T11:43:07.515Z,9.18
2022-11-23T11:44:19.484Z,9.02
2022-11-23T11:45:36.454Z,9.88
2022-11-23T11:46:43.320Z,9.80
2022-11-23T11:48:08.113Z,9.65
2022-11-23T11:49:40.259Z,9.10
2022-11-23T11:50:53.111Z,9.70
2022-11-23T11:52:09.596Z,9.07
2022-11-23T11:53:16.887Z,10.02
2022-11-23T11:54:25.981Z,9.23
2022-11-23T11:55:54.630Z,9.52
2022-11-23T11:57:06.556Z,9.95
2022-11-23T11:58:14.279Z,9.57
2022-11-23T11:59:32.993Z,10.55
2022-11-23T12:00:43.546Z,9.48
2022-11-23T12:02:17.460Z,10.45
2022-11-23T12:03:52.318Z,10.05
2022-11-23T12:05:07.512Z,9.80
2022-11-23T12:06:16.366Z,10.43
2022-11-23T12:07:38.193Z,10.38
2022-11-23T12:08:51.942Z,10.02
2022-11-23T12:10:00.436Z,10.57
2022-11-23T12:11:02.441Z,10.25
2022-11-23T12:12:06.098Z,10.15
2022-11-23T12:13:17.614Z,10.30
2022-11-23T12:14:19.342Z,10.55
2022-11-23T12:15:48.261Z,10.70
2022-11-23T12:17:10.543Z,11.13
2022-11-23T12:18:51.635Z,9.85
2022-11-23T12:20:18.537Z,10.43
2022-11-23T12:21:35.739Z,10.93
2022-11-23T12:22:47.750Z,10.10
2022-11-23T12:24:22.962Z,10.77
2022-11-23T12:25:34.731Z,11.18
2022-11-23T12:26:57.483Z,10.90
2022-11-23T12:28:04.925Z,11.35
2022-11-23T12:29:09.527Z,12.00
2022-11-23T12:30:29.946Z,12.85
2022-11-23T12:32:05.537Z,11.27
2022-11-23T12:33:07.130Z,10.52
2022-11-23T12:34:27.558Z,11.05
2022-11-23T12:35:31.893Z,11.48
2022-11-23T12:36:56.504Z,11.70
2022-11-23T12:38:25.161Z,11.80
2022-11-23T12:39:51.675Z,11.63
2022-11-23T12:41:08.677Z,10.88
2022-11-23T12:42:27.669Z,11.93
2022-11-23T12:43:36.646Z,10.75
2022-11-23T12:45:06.513Z,10.77
2022-11-23T12:46:21.497Z,11.68
2022-11-23T12:48:05.071Z,9.57
2022-11-23T12:49:28.428Z,10.40
2022-11-23T12:50:41.514Z,10.35
2022-11-23T12:52:10.109Z,11.35
2022-11-23T12:53:27.017Z,11.10
2022-11-23T12:55:01.395Z,10.35
2022-11-23T12:56:21.372Z,10.38
2022-11-23T12:57:48.422Z,10.68
2022-11-23T12:58:52.136Z,10.52
2022-11-23T13:00:28.254Z,10.98
2022-11-23T13:01:35.512Z,10.50
2022-11-23T13:02:37.361Z,11.48
2022-11-23T13:04:04.450Z,10.40
2022-11-23T13:05:26.392Z,11.05
2022-11-23T13:06:40.040Z,11.70
2022-11-23T13:08:01.117Z,11.55
2022-11-23T13:09:11.431Z,10.65
2022-11-23T13:10:47.200Z,11.35
2022-11-23T13:12:16.024Z,10.88
2022-11-23T13:13:26.375Z,10.75
2022-11-23T13:14:46.219Z,11.50
2022-11-23T13:15:51.153Z,11.70
2022-11-23T13:17:02.051Z,11.27
2022-11-23T13:18:51.501Z,11.23
2022-11-23T13:20:22.303Z,11.10
2022-11-23T13:21:37.137Z,11.93
2022-11-23T13:22:44.289Z,11.60
2022-11-23T13:23:46.052Z,11.55
2022-11-23T13:25:15.208Z,11.98
2022-11-23T13:26:24.453Z,11.70
2022-11-23T13:27:32.349Z,11.38
2022-11-23T13:28:34.133Z,11.05
2022-11-23T13:29:51.164Z,11.70
2022-11-23T13:31:15.744Z,11.30
2022-11-23T13:32:38.825Z,11.88
2022-11-23T13:33:41.357Z,10.73
2022-11-23T13:34:45.811Z,11.05
2022-11-23T13:35:53.002Z,11.65
2022-11-23T13:37:17.078Z,11.25
2022-11-23T13:38:24.938Z,11.10
2022-11-23T13:39:45.427Z,11.98
2022-11-23T13:40:47.144Z,11.43
2022-11-23T13:41:54.774Z,11.90
2022-11-23T13:43:19.700Z,12.35
2022-11-23T13:44:32.461Z,11.63
2022-11-23T13:45:36.879Z,12.25
2022-11-23T13:46:38.871Z,12.27
2022-11-23T13:47:43.613Z,12.05
2022-11-23T13:48:56.757Z,12.55
2022-11-23T13:50:17.280Z,12.65
2022-11-23T13:52:03.836Z,12.70
2022-11-23T13:53:22.569Z,12.77
2022-11-23T13:54:26.658Z,14.90
2022-11-23T13:55:38.665Z,14.27
2022-11-23T13:56:44.489Z,16.17
2022-11-23T13:58:07.996Z,14.73
2022-11-23T13:59:24.893Z,13.23
2022-11-23T14:00:49.265Z,12.48
2022-11-23T14:02:00.307Z,12.40
2022-11-23T14:03:39.341Z,11.93
2022-11-23T14:04:45.812Z,12.25
2022-11-23T14:05:50.489Z,12.35
2022-11-23T14:07:03.359Z,13.13
2022-11-23T14:08:06.301Z,13.00
2022-11-23T14:09:13.808Z,12.43
2022-11-23T14:10:22.944Z,12.02
2022-11-23T14:11:27.318Z,12.45
2022-11-23T14:12:57.147Z,11.73
2022-11-23T14:14:03.872Z,11.80
2022-11-23T14:15:31.476Z,11.88
2022-11-23T14:17:09.029Z,12.88
2022-11-23T14:18:13.651Z,12.00
2022-11-23T14:19:29.139Z,12.13
2022-11-23T14:20:42.960Z,12.10
2022-11-23T14:22:09.794Z,11.55
2022-11-23T14:23:38.944Z,12.65
2022-11-23T14:24:43.341Z,12.27
2022-11-23T14:26:12.618Z,12.05
2022-11-23T14:27:47.133Z,13.23
2022-11-23T14:29:07.779Z,12.57
2022-11-23T14:30:32.648Z,12.18
2022-11-23T14:31:34.831Z,13.15
2022-11-23T14:32:47.823Z,12.75
2022-11-23T14:34:05.683Z,12.80
2022-11-23T14:35:13.319Z,13.05
2022-11-23T14:36:17.833Z,12.65
2022-11-23T14:37:41.259Z,12.20